createdAt,value
2018-12-05T00:00:43.000Z,26.7
2018-12-05T00:01:43.000Z,26.7
2018-12-05T00:02:43.000Z,26.8
2018-12-05T00:04:43.000Z,26.9
2018-12-05T00:06:27.000Z,26.9
2018-12-05T00:07:43.000Z,26.9
2018-12-05T00:09:43.000Z,26.8
2018-12-05T00:11:43.000Z,26.8
2018-12-05T00:13:43.000Z,26.7
2018-12-05T00:14:43.000Z,26.7
2018-12-05T00:15:43.000Z,26.8
2018-12-05T00:17:43.000Z,26.9
2018-12-05T00:18:43.000Z,26.9
2018-12-05T00:19:43.000Z,26.9
2018-12-05T00:20:43.000Z,27
2018-12-05T00:21:43.000Z,27
2018-12-05T00:22:43.000Z,27
2018-12-05T00:24:43.000Z,27.1
2018-12-05T00:26:43.000Z,27
2018-12-05T00:27:43.000Z,27
2018-12-05T00:29:43.000Z,26.9
2018-12-05T00:31:43.000Z,26.9
2018-12-05T00:33:43.000Z,26.8
2018-12-05T00:35:43.000Z,26.7
2018-12-05T00:37:43.000Z,26.7
2018-12-05T00:39:43.000Z,26.7
2018-12-05T00:40:43.000Z,26.7
2018-12-05T00:42:43.000Z,26.7
2018-12-05T00:44:43.000Z,26.7
2018-12-05T00:45:43.000Z,26.8
2018-12-05T00:46:43.000Z,26.8
2018-12-05T00:47:43.000Z,26.8
2018-12-05T00:48:43.000Z,26.9
2018-12-05T00:50:43.000Z,26.9
2018-12-05T00:51:43.000Z,26.9
2018-12-05T00:53:43.000Z,26.9
2018-12-05T00:55:43.000Z,26.8
2018-12-05T00:56:43.000Z,26.8
2018-12-05T00:57:43.000Z,26.8
2018-12-05T00:59:43.000Z,26.9
2018-12-05T01:00:43.000Z,26.9
2018-12-05T01:02:43.000Z,26.9
2018-12-05T01:04:43.000Z,26.9
2018-12-05T01:06:28.000Z,26.9
2018-12-05T01:07:43.000Z,26.8
2018-12-05T01:08:43.000Z,26.8
2018-12-05T01:10:43.000Z,26.8
2018-12-05T01:12:43.000Z,26.7
2018-12-05T01:14:43.000Z,26.6
2018-12-05T01:16:43.000Z,26.6
2018-12-05T01:17:43.000Z,26.6
2018-12-05T01:19:28.000Z,26.7
2018-12-05T01:20:43.000Z,26.7
2018-12-05T01:21:43.000Z,26.7
2018-12-05T01:23:43.000Z,26.8
2018-12-05T01:24:43.000Z,26.8
2018-12-05T01:25:43.000Z,26.8
2018-12-05T01:27:43.000Z,26.9
2018-12-05T01:28:43.000Z,26.9
2018-12-05T01:30:43.000Z,27
2018-12-05T01:31:43.000Z,27
2018-12-05T01:33:43.000Z,26.9
2018-12-05T01:35:28.000Z,26.9
2018-12-05T01:36:43.000Z,26.9
2018-12-05T01:37:43.000Z,26.9
2018-12-05T01:39:28.000Z,26.9
2018-12-05T01:40:43.000Z,26.8
2018-12-05T01:41:43.000Z,26.9
2018-12-05T01:43:43.000Z,26.9
2018-12-05T01:45:43.000Z,26.8
2018-12-05T01:46:43.000Z,26.8
2018-12-05T01:48:43.000Z,26.8
2018-12-05T01:49:43.000Z,26.8
2018-12-05T01:51:43.000Z,26.8
2018-12-05T01:53:43.000Z,26.8
2018-12-05T01:54:43.000Z,26.8
2018-12-05T01:56:43.000Z,26.8
2018-12-05T01:57:43.000Z,26.9
2018-12-05T01:59:43.000Z,26.9
2018-12-05T02:00:43.000Z,26.9
2018-12-05T02:02:43.000Z,26.9
2018-12-05T02:03:43.000Z,26.9
2018-12-05T02:05:28.000Z,26.9
2018-12-05T02:06:43.000Z,26.9
2018-12-05T02:08:43.000Z,26.7
2018-12-05T02:09:43.000Z,26.6
2018-12-05T02:11:43.000Z,26.6
2018-12-05T02:12:43.000Z,26.6
2018-12-05T02:14:43.000Z,26.6
2018-12-05T02:16:43.000Z,26.6
2018-12-05T02:17:43.000Z,26.6
2018-12-05T02:19:43.000Z,26.7
2018-12-05T02:20:43.000Z,26.7
2018-12-05T02:21:43.000Z,26.8
2018-12-05T02:23:28.000Z,26.8
2018-12-05T02:24:43.000Z,26.8
2018-12-05T02:26:43.000Z,26.8
2018-12-05T02:27:43.000Z,26.8
2018-12-05T02:28:43.000Z,26.8
2018-12-05T02:30:43.000Z,26.8
2018-12-05T02:32:43.000Z,26.8
2018-12-05T02:34:43.000Z,26.8
2018-12-05T02:35:43.000Z,26.8
2018-12-05T02:37:43.000Z,26.8
2018-12-05T02:39:43.000Z,26.7
2018-12-05T02:41:43.000Z,26.6
2018-12-05T02:42:43.000Z,26.6
2018-12-05T02:43:43.000Z,26.7
2018-12-05T02:45:43.000Z,26.7
2018-12-05T02:46:43.000Z,26.7
2018-12-05T02:48:43.000Z,26.7
2018-12-05T02:50:43.000Z,26.7
2018-12-05T02:52:28.000Z,26.7
2018-12-05T02:53:43.000Z,26.6
2018-12-05T02:54:43.000Z,26.6
2018-12-05T02:55:43.000Z,26.7
2018-12-05T02:57:28.000Z,26.8
2018-12-05T02:58:43.000Z,26.8
2018-12-05T03:00:43.000Z,26.7
2018-12-05T03:01:43.000Z,26.7
2018-12-05T03:03:43.000Z,26.7
2018-12-05T03:05:43.000Z,26.7
2018-12-05T03:06:43.000Z,26.7
2018-12-05T03:08:43.000Z,26.8
2018-12-05T03:09:43.000Z,26.8
2018-12-05T03:11:43.000Z,26.8
2018-12-05T03:12:43.000Z,26.8
2018-12-05T03:13:43.000Z,26.8
2018-12-05T03:14:43.000Z,26.9
2018-12-05T03:16:43.000Z,26.9
2018-12-05T03:18:43.000Z,26.8
2018-12-05T03:19:43.000Z,26.8
2018-12-05T03:21:43.000Z,26.8
2018-12-05T03:23:42.000Z,26.8
2018-12-05T03:25:42.000Z,26.7
2018-12-05T03:26:42.000Z,26.7
2018-12-05T03:28:42.000Z,26.7
2018-12-05T03:30:42.000Z,26.7
2018-12-05T03:32:42.000Z,26.6
2018-12-05T03:33:43.000Z,26.6
2018-12-05T03:35:27.000Z,26.6
2018-12-05T03:36:42.000Z,26.6
2018-12-05T03:38:42.000Z,26.6
2018-12-05T03:39:42.000Z,26.6
2018-12-05T03:41:42.000Z,26.6
2018-12-05T03:42:42.000Z,26.7
2018-12-05T03:44:42.000Z,26.7
2018-12-05T03:45:42.000Z,26.7
2018-12-05T03:46:42.000Z,26.8
2018-12-05T03:47:42.000Z,26.8
2018-12-05T03:49:42.000Z,26.8
2018-12-05T03:51:42.000Z,26.8
2018-12-05T03:52:42.000Z,26.8
2018-12-05T03:54:27.000Z,26.8
2018-12-05T03:55:42.000Z,26.8
2018-12-05T03:57:42.000Z,26.8
2018-12-05T03:59:42.000Z,26.7
2018-12-05T04:00:42.000Z,26.7
2018-12-05T04:01:42.000Z,26.7
2018-12-05T04:02:42.000Z,26.8
2018-12-05T04:04:42.000Z,26.8
2018-12-05T04:06:42.000Z,26.7
2018-12-05T04:08:42.000Z,26.7
2018-12-05T04:10:42.000Z,26.7
2018-12-05T04:11:42.000Z,26.7
2018-12-05T04:12:42.000Z,26.7
2018-12-05T04:14:42.000Z,26.8
2018-12-05T04:16:42.000Z,26.7
2018-12-05T04:17:42.000Z,26.7
2018-12-05T04:18:42.000Z,26.7
2018-12-05T04:19:42.000Z,26.8
2018-12-05T04:21:42.000Z,26.7
2018-12-05T04:23:42.000Z,26.6
2018-12-05T04:24:42.000Z,26.6
2018-12-05T04:26:43.000Z,26.6
2018-12-05T04:28:43.000Z,26.5
2018-12-05T04:30:43.000Z,26.5
2018-12-05T04:31:43.000Z,26.5
2018-12-05T04:32:43.000Z,26.5
2018-12-05T04:33:43.000Z,26.6
2018-12-05T04:35:43.000Z,26.6
2018-12-05T04:37:43.000Z,26.6
2018-12-05T04:39:43.000Z,26.6
2018-12-05T04:41:43.000Z,26.6
2018-12-05T04:42:43.000Z,26.6
2018-12-05T04:44:43.000Z,26.6
2018-12-05T04:45:43.000Z,26.7
2018-12-05T04:46:43.000Z,26.7
2018-12-05T04:48:43.000Z,26.7
2018-12-05T04:49:43.000Z,26.8
2018-12-05T04:51:28.000Z,26.8
2018-12-05T04:52:43.000Z,26.7
2018-12-05T04:54:28.000Z,26.7
2018-12-05T04:55:43.000Z,26.6
2018-12-05T04:57:43.000Z,26.6
2018-12-05T04:59:43.000Z,26.5
2018-12-05T05:01:43.000Z,26.5
2018-12-05T05:03:43.000Z,26.5
2018-12-05T05:04:43.000Z,26.5
2018-12-05T05:05:43.000Z,26.5
2018-12-05T05:07:43.000Z,26.6
2018-12-05T05:09:43.000Z,26.6
2018-12-05T05:10:43.000Z,26.7
2018-12-05T05:12:43.000Z,26.7
2018-12-05T05:13:43.000Z,26.7
2018-12-05T05:15:43.000Z,26.7
2018-12-05T05:17:43.000Z,26.7
2018-12-05T05:19:43.000Z,26.7
2018-12-05T05:21:43.000Z,26.6
2018-12-05T05:22:43.000Z,26.6
2018-12-05T05:24:43.000Z,26.6
2018-12-05T05:25:43.000Z,26.6
2018-12-05T05:26:43.000Z,26.7
2018-12-05T05:27:43.000Z,26.7
2018-12-05T05:29:43.000Z,26.6
2018-12-05T05:30:43.000Z,26.2
2018-12-05T05:32:43.000Z,25.3
2018-12-05T05:34:43.000Z,24.5
2018-12-05T05:36:28.000Z,24.5
2018-12-05T05:37:43.000Z,24.5
2018-12-05T05:38:43.000Z,24.6
2018-12-05T05:40:43.000Z,24.9
2018-12-05T05:41:43.000Z,25.1
2018-12-05T05:43:43.000Z,25.3
2018-12-05T05:45:43.000Z,25.6
2018-12-05T05:47:43.000Z,25.8
2018-12-05T05:49:43.000Z,25.9
2018-12-05T05:50:43.000Z,26
2018-12-05T05:52:43.000Z,26.1
2018-12-05T05:54:43.000Z,26.2
2018-12-05T05:55:43.000Z,26.2
2018-12-05T05:57:28.000Z,26.4
2018-12-05T05:58:43.000Z,26.4
2018-12-05T06:00:43.000Z,26.5
2018-12-05T06:01:43.000Z,26.5
2018-12-05T06:03:43.000Z,26.6
2018-12-05T06:05:28.000Z,26.6
2018-12-05T06:06:43.000Z,26.6
2018-12-05T06:08:43.000Z,26.7
2018-12-05T06:10:43.000Z,26.8
2018-12-05T06:11:43.000Z,26.8
2018-12-05T06:12:43.000Z,26.9
2018-12-05T06:14:43.000Z,27
2018-12-05T06:16:43.000Z,27.1
2018-12-05T06:17:43.000Z,27.1
2018-12-05T06:19:43.000Z,27.1
2018-12-05T06:21:43.000Z,27
2018-12-05T06:23:43.000Z,27
2018-12-05T06:24:43.000Z,27
2018-12-05T06:26:43.000Z,27
2018-12-05T06:27:43.000Z,27.1
2018-12-05T06:29:43.000Z,27.2
2018-12-05T06:31:43.000Z,27.2
2018-12-05T06:32:43.000Z,27.2
2018-12-05T06:33:43.000Z,27.3
2018-12-05T06:35:43.000Z,27.4
2018-12-05T06:36:43.000Z,27.4
2018-12-05T06:38:43.000Z,27.5
2018-12-05T06:40:43.000Z,27.4
2018-12-05T06:42:43.000Z,27.3
2018-12-05T06:43:43.000Z,27.3
2018-12-05T06:45:43.000Z,27.3
2018-12-05T06:47:43.000Z,27.4
2018-12-05T06:48:43.000Z,27.4
2018-12-05T06:50:43.000Z,27.5
2018-12-05T06:52:43.000Z,27.5
2018-12-05T06:53:43.000Z,27.6
2018-12-05T06:55:43.000Z,27.6
2018-12-05T06:57:43.000Z,27.6
2018-12-05T06:59:43.000Z,27.6
2018-12-05T07:00:43.000Z,27.6
2018-12-05T07:02:43.000Z,27.6
2018-12-05T07:03:43.000Z,27.6
2018-12-05T07:05:28.000Z,27.6
2018-12-05T07:06:43.000Z,27.6
2018-12-05T07:07:43.000Z,27.7
2018-12-05T07:09:43.000Z,27.8
2018-12-05T07:11:43.000Z,27.8
2018-12-05T07:12:43.000Z,27.9
2018-12-05T07:14:43.000Z,27.9
2018-12-05T07:16:43.000Z,27.8
2018-12-05T07:18:43.000Z,27.7
2018-12-05T07:20:43.000Z,27.7
2018-12-05T07:21:43.000Z,27.7
2018-12-05T07:22:43.000Z,27.8
2018-12-05T07:24:43.000Z,27.9
2018-12-05T07:26:43.000Z,27.9
2018-12-05T07:28:43.000Z,27.9
2018-12-05T07:29:43.000Z,27.9
2018-12-05T07:31:43.000Z,27.9
2018-12-05T07:33:43.000Z,27.9
2018-12-05T07:34:43.000Z,27.8
2018-12-05T07:36:43.000Z,27.9
2018-12-05T07:38:43.000Z,27.8
2018-12-05T07:40:43.000Z,27.7
2018-12-05T07:41:43.000Z,27.8
2018-12-05T07:42:43.000Z,27.9
2018-12-05T07:44:28.000Z,27.9
2018-12-05T07:45:43.000Z,27.9
2018-12-05T07:47:43.000Z,27.9
2018-12-05T07:48:43.000Z,27.9
2018-12-05T07:50:43.000Z,28
2018-12-05T07:51:43.000Z,28
2018-12-05T07:52:43.000Z,28.1
2018-12-05T07:54:28.000Z,28.2
2018-12-05T07:55:43.000Z,28.2
2018-12-05T07:57:43.000Z,28.1
2018-12-05T07:59:43.000Z,28.1
2018-12-05T08:00:43.000Z,28.1
2018-12-05T08:01:43.000Z,28.2
2018-12-05T08:03:43.000Z,28.2
2018-12-05T08:05:43.000Z,28.3
2018-12-05T08:07:43.000Z,28.3
2018-12-05T08:09:28.000Z,28.3
2018-12-05T08:10:43.000Z,28.3
2018-12-05T08:12:43.000Z,28.3
2018-12-05T08:14:43.000Z,28.4
2018-12-05T08:15:43.000Z,28.4
2018-12-05T08:17:43.000Z,28.5
2018-12-05T08:18:43.000Z,28.5
2018-12-05T08:20:43.000Z,28.5
2018-12-05T08:22:28.000Z,28.5
2018-12-05T08:23:43.000Z,28.5
2018-12-05T08:25:43.000Z,28.5
2018-12-05T08:26:43.000Z,28.5
2018-12-05T08:28:43.000Z,28.6
2018-12-05T08:30:28.000Z,28.6
2018-12-05T08:31:43.000Z,28.6
2018-12-05T08:33:43.000Z,28.7
2018-12-05T08:34:43.000Z,28.7
2018-12-05T08:35:43.000Z,28.8
2018-12-05T08:37:43.000Z,28.9
2018-12-05T08:39:43.000Z,28.8
2018-12-05T08:41:43.000Z,28.7
2018-12-05T08:43:43.000Z,28.6
2018-12-05T08:45:43.000Z,28.5
2018-12-05T08:46:43.000Z,28.5
2018-12-05T08:48:28.000Z,28.6
2018-12-05T08:49:43.000Z,28.6
2018-12-05T08:51:43.000Z,28.7
2018-12-05T08:53:43.000Z,28.8
2018-12-05T08:55:43.000Z,28.8
2018-12-05T08:57:28.000Z,28.9
2018-12-05T08:58:43.000Z,29
2018-12-05T09:00:43.000Z,29.1
2018-12-05T09:02:43.000Z,29.2
2018-12-05T09:03:43.000Z,29.3
2018-12-05T09:04:43.000Z,29.4
2018-12-05T09:05:43.000Z,29.5
2018-12-05T09:06:43.000Z,29.6
2018-12-05T09:08:43.000Z,29.7
2018-12-05T09:09:43.000Z,29.7
2018-12-05T09:11:43.000Z,29.8
2018-12-05T09:12:43.000Z,29.8
2018-12-05T09:14:28.000Z,29.8
2018-12-05T09:15:43.000Z,29.7
2018-12-05T09:16:43.000Z,29.7
2018-12-05T09:17:43.000Z,29.7
2018-12-05T09:19:43.000Z,29.8
2018-12-05T09:21:43.000Z,29.8
2018-12-05T09:22:43.000Z,29.8
2018-12-05T09:23:43.000Z,29.9
2018-12-05T09:24:43.000Z,29.9
2018-12-05T09:26:43.000Z,29.9
2018-12-05T09:27:43.000Z,29.9
2018-12-05T09:28:43.000Z,30
2018-12-05T09:29:43.000Z,30
2018-12-05T09:31:43.000Z,30.1
2018-12-05T09:32:43.000Z,30.1
2018-12-05T09:33:43.000Z,30.1
2018-12-05T09:35:43.000Z,30.2
2018-12-05T09:37:43.000Z,30.2
2018-12-05T09:38:43.000Z,30.2
2018-12-05T09:40:43.000Z,30.2
2018-12-05T09:42:43.000Z,30.1
2018-12-05T09:43:43.000Z,30.2
2018-12-05T09:44:43.000Z,30.2
2018-12-05T09:45:43.000Z,30.2
2018-12-05T09:47:43.000Z,30.2
2018-12-05T09:48:43.000Z,30.2
2018-12-05T09:50:43.000Z,30.3
2018-12-05T09:52:43.000Z,30.2
2018-12-05T09:54:43.000Z,30.1
2018-12-05T09:55:43.000Z,30.1
2018-12-05T09:57:28.000Z,30.2
2018-12-05T09:58:43.000Z,30.1
2018-12-05T10:00:43.000Z,30.1
2018-12-05T10:01:43.000Z,30.1
2018-12-05T10:03:43.000Z,30.2
2018-12-05T10:05:43.000Z,30.2
2018-12-05T10:07:43.000Z,30.2
2018-12-05T10:09:43.000Z,30.2
2018-12-05T10:11:43.000Z,30.2
2018-12-05T10:13:43.000Z,30.2
2018-12-05T10:14:43.000Z,30.2
2018-12-05T10:15:43.000Z,30.3
2018-12-05T10:16:43.000Z,30.4
2018-12-05T10:18:43.000Z,30.4
2018-12-05T10:20:43.000Z,30.5
2018-12-05T10:22:43.000Z,30.7
2018-12-05T10:23:43.000Z,30.8
2018-12-05T10:25:43.000Z,30.9
2018-12-05T10:26:43.000Z,30.9
2018-12-05T10:28:43.000Z,31
2018-12-05T10:30:43.000Z,30.9
2018-12-05T10:31:43.000Z,31
2018-12-05T10:33:43.000Z,31
2018-12-05T10:35:43.000Z,31.2
2018-12-05T10:36:43.000Z,31.2
2018-12-05T10:37:43.000Z,31.3
2018-12-05T10:39:43.000Z,31.5
2018-12-05T10:40:43.000Z,31.5
2018-12-05T10:42:43.000Z,31.5
2018-12-05T10:43:43.000Z,31.4
2018-12-05T10:44:43.000Z,31.4
2018-12-05T10:46:43.000Z,31.3
2018-12-05T10:48:43.000Z,31.2
2018-12-05T10:50:27.000Z,31.1
2018-12-05T10:51:43.000Z,31
2018-12-05T10:53:43.000Z,30.9
2018-12-05T10:54:43.000Z,30.9
2018-12-05T10:56:43.000Z,30.8
2018-12-05T10:58:43.000Z,30.5
2018-12-05T10:59:43.000Z,30.5
2018-12-05T11:01:43.000Z,30.4
2018-12-05T11:02:43.000Z,30.3
2018-12-05T11:04:43.000Z,30.3
2018-12-05T11:06:27.000Z,30.3
2018-12-05T11:07:43.000Z,30.3
2018-12-05T11:08:43.000Z,30.3
2018-12-05T11:09:43.000Z,30.3
2018-12-05T11:10:43.000Z,30.3
2018-12-05T11:12:43.000Z,30.3
2018-12-05T11:13:43.000Z,30.3
2018-12-05T11:15:43.000Z,30.3
2018-12-05T11:17:43.000Z,30.2
2018-12-05T11:19:43.000Z,30.1
2018-12-05T11:21:43.000Z,30.1
2018-12-05T11:23:43.000Z,29.9
2018-12-05T11:25:43.000Z,29.8
2018-12-05T11:26:43.000Z,29.8
2018-12-05T11:28:43.000Z,29.9
2018-12-05T11:29:43.000Z,29.9
2018-12-05T11:31:43.000Z,29.9
2018-12-05T11:32:43.000Z,29.9
2018-12-05T11:34:27.000Z,30
2018-12-05T11:35:43.000Z,29.9
2018-12-05T11:37:43.000Z,29.9
2018-12-05T11:39:43.000Z,29.9
2018-12-05T11:41:28.000Z,29.9
2018-12-05T11:43:43.000Z,29.7
2018-12-05T11:45:43.000Z,29.7
2018-12-05T11:47:43.000Z,29.7
2018-12-05T11:48:43.000Z,29.7
2018-12-05T11:50:43.000Z,29.8
2018-12-05T11:51:43.000Z,29.9
2018-12-05T11:53:43.000Z,29.9
2018-12-05T11:55:43.000Z,29.9
2018-12-05T11:56:43.000Z,29.9
2018-12-05T11:58:43.000Z,30
2018-12-05T12:00:43.000Z,29.9
2018-12-05T12:02:43.000Z,29.8
2018-12-05T12:04:43.000Z,29.8
2018-12-05T12:05:43.000Z,29.8
2018-12-05T12:07:43.000Z,29.8
2018-12-05T12:08:43.000Z,29.8
2018-12-05T12:10:43.000Z,29.7
2018-12-05T12:12:43.000Z,29.6
2018-12-05T12:13:43.000Z,29.6
2018-12-05T12:15:43.000Z,29.6
2018-12-05T12:16:43.000Z,29.6
2018-12-05T12:18:43.000Z,29.7
2018-12-05T12:19:43.000Z,29.8
2018-12-05T12:21:43.000Z,29.8
2018-12-05T12:22:43.000Z,29.8
2018-12-05T12:23:43.000Z,29.8
2018-12-05T12:25:27.000Z,29.8
2018-12-05T12:26:28.000Z,29.7
2018-12-05T12:27:43.000Z,29.6
2018-12-05T12:28:43.000Z,29.5
2018-12-05T12:30:43.000Z,29.6
2018-12-05T12:31:43.000Z,29.6
2018-12-05T12:33:43.000Z,29.5
2018-12-05T12:35:43.000Z,29.5
2018-12-05T12:37:43.000Z,29.5
2018-12-05T12:38:43.000Z,29.4
2018-12-05T12:40:27.000Z,29.5
2018-12-05T12:41:43.000Z,29.5
2018-12-05T12:43:43.000Z,29.4
2018-12-05T12:44:43.000Z,29.5
2018-12-05T12:46:43.000Z,29.5
2018-12-05T12:47:43.000Z,29.5
2018-12-05T12:49:43.000Z,29.6
2018-12-05T12:51:43.000Z,29.6
2018-12-05T12:53:43.000Z,29.5
2018-12-05T12:54:43.000Z,29.5
2018-12-05T12:56:43.000Z,29.5
2018-12-05T12:57:43.000Z,29.5
2018-12-05T12:58:43.000Z,29.5
2018-12-05T13:00:43.000Z,29.5
2018-12-05T13:02:28.000Z,29.5
2018-12-05T13:03:43.000Z,29.4
2018-12-05T13:04:43.000Z,29.4
2018-12-05T13:05:43.000Z,29.5
2018-12-05T13:06:43.000Z,29.5
2018-12-05T13:08:43.000Z,29.5
2018-12-05T13:09:43.000Z,29.5
2018-12-05T13:11:43.000Z,29.5
2018-12-05T13:13:43.000Z,29.5
2018-12-05T13:15:43.000Z,29.5
2018-12-05T13:17:43.000Z,29.5
2018-12-05T13:18:43.000Z,29.5
2018-12-05T13:20:43.000Z,29.5
2018-12-05T13:22:43.000Z,29.4
2018-12-05T13:23:43.000Z,29.4
2018-12-05T13:25:43.000Z,29.4
2018-12-05T13:27:43.000Z,29.4
2018-12-05T13:29:43.000Z,29.3
2018-12-05T13:30:43.000Z,29.3
2018-12-05T13:31:43.000Z,29.4
2018-12-05T13:33:43.000Z,29.4
2018-12-05T13:34:43.000Z,29.4
2018-12-05T13:35:43.000Z,29.5
2018-12-05T13:37:28.000Z,29.5
2018-12-05T13:38:43.000Z,29.5
2018-12-05T13:40:43.000Z,29.5
2018-12-05T13:42:43.000Z,29.4
2018-12-05T13:44:43.000Z,29.4
2018-12-05T13:46:28.000Z,29.3
2018-12-05T13:47:43.000Z,29.2
2018-12-05T13:48:43.000Z,29.1
2018-12-05T13:49:43.000Z,29.2
2018-12-05T13:51:43.000Z,29.3
2018-12-05T13:53:43.000Z,29.3
2018-12-05T13:54:43.000Z,29.3
2018-12-05T13:55:43.000Z,29.4
2018-12-05T13:57:43.000Z,29.4
2018-12-05T13:58:43.000Z,29.4
2018-12-05T14:00:43.000Z,29.5
2018-12-05T14:02:43.000Z,29.5
2018-12-05T14:03:43.000Z,29.4
2018-12-05T14:05:43.000Z,29
2018-12-05T14:06:43.000Z,28.8
2018-12-05T14:08:43.000Z,28.4
2018-12-05T14:10:43.000Z,28
2018-12-05T14:12:43.000Z,27.5
2018-12-05T14:13:43.000Z,27.4
2018-12-05T14:15:43.000Z,27.2
2018-12-05T14:16:43.000Z,27.2
2018-12-05T14:18:43.000Z,27.2
2018-12-05T14:19:43.000Z,27.1
2018-12-05T14:21:43.000Z,27.1
2018-12-05T14:23:43.000Z,27
2018-12-05T14:25:43.000Z,26.9
2018-12-05T14:27:28.000Z,26.8
2018-12-05T14:28:43.000Z,26.7
2018-12-05T14:29:43.000Z,26.6
2018-12-05T14:31:43.000Z,26.5
2018-12-05T14:33:43.000Z,26.3
2018-12-05T14:35:43.000Z,26.2
2018-12-05T14:37:43.000Z,26.1
2018-12-05T14:39:43.000Z,26.1
2018-12-05T14:40:43.000Z,26
2018-12-05T14:42:43.000Z,26
2018-12-05T14:43:43.000Z,26
2018-12-05T14:44:43.000Z,25.9
2018-12-05T14:46:43.000Z,25.7
2018-12-05T14:47:43.000Z,25.7
2018-12-05T14:49:43.000Z,25.7
2018-12-05T14:51:43.000Z,25.6
2018-12-05T14:52:43.000Z,25.5
2018-12-05T14:54:43.000Z,25.5
2018-12-05T14:55:43.000Z,25.5
2018-12-05T14:56:43.000Z,25.6
2018-12-05T14:58:43.000Z,25.5
2018-12-05T14:59:43.000Z,25.5
2018-12-05T15:01:43.000Z,25.5
2018-12-05T15:03:43.000Z,25.5
2018-12-05T15:05:43.000Z,25.4
2018-12-05T15:07:43.000Z,25.4
2018-12-05T15:08:43.000Z,25.3
2018-12-05T15:10:28.000Z,25.3
2018-12-05T15:11:43.000Z,25.2
2018-12-05T15:13:43.000Z,25.1
2018-12-05T15:14:43.000Z,25
2018-12-05T15:15:43.000Z,25
2018-12-05T15:17:28.000Z,25
2018-12-05T15:18:43.000Z,24.9
2018-12-05T15:19:43.000Z,25
2018-12-05T15:21:43.000Z,25.3
2018-12-05T15:22:43.000Z,25.5
2018-12-05T15:24:43.000Z,25.7
2018-12-05T15:26:43.000Z,25.9
2018-12-05T15:28:43.000Z,26
2018-12-05T15:29:43.000Z,26
2018-12-05T15:30:43.000Z,26.2
2018-12-05T15:31:43.000Z,26.3
2018-12-05T15:33:43.000Z,26.5
2018-12-05T15:34:43.000Z,26.6
2018-12-05T15:36:43.000Z,26.8
2018-12-05T15:38:43.000Z,26.8
2018-12-05T15:40:28.000Z,26.8
2018-12-05T15:41:43.000Z,26.8
2018-12-05T15:42:43.000Z,26.8
2018-12-05T15:44:28.000Z,26.8
2018-12-05T15:45:43.000Z,26.8
2018-12-05T15:46:43.000Z,26.9
2018-12-05T15:48:28.000Z,27
2018-12-05T15:49:43.000Z,27
2018-12-05T15:51:43.000Z,27
2018-12-05T15:52:43.000Z,27
2018-12-05T15:54:43.000Z,27.1
2018-12-05T15:55:43.000Z,27.1
2018-12-05T15:57:43.000Z,27.2
2018-12-05T15:59:43.000Z,27.2
2018-12-05T16:00:43.000Z,27.2
2018-12-05T16:02:43.000Z,27.3
2018-12-05T16:03:43.000Z,27.3
2018-12-05T16:04:43.000Z,27.4
2018-12-05T16:05:43.000Z,27.4
2018-12-05T16:06:43.000Z,27.4
2018-12-05T16:07:43.000Z,27.5
2018-12-05T16:09:43.000Z,27.5
2018-12-05T16:10:43.000Z,27.5
2018-12-05T16:12:43.000Z,27.5
2018-12-05T16:13:43.000Z,27.5
2018-12-05T16:15:28.000Z,27.5
2018-12-05T16:16:43.000Z,27.4
2018-12-05T16:17:43.000Z,27.5
2018-12-05T16:19:43.000Z,27.5
2018-12-05T16:20:43.000Z,27.5
2018-12-05T16:22:43.000Z,27.5
2018-12-05T16:24:43.000Z,27.5
2018-12-05T16:25:43.000Z,27.5
2018-12-05T16:27:43.000Z,27.5
2018-12-05T16:29:43.000Z,27.5
2018-12-05T16:31:43.000Z,27.4
2018-12-05T16:32:43.000Z,27.4
2018-12-05T16:34:43.000Z,27.4
2018-12-05T16:35:43.000Z,27.4
2018-12-05T16:37:43.000Z,27.5
2018-12-05T16:39:43.000Z,27.4
2018-12-05T16:41:43.000Z,27.3
2018-12-05T16:42:43.000Z,27.3
2018-12-05T16:44:43.000Z,27.3
2018-12-05T16:45:43.000Z,27.4
2018-12-05T16:47:43.000Z,27.4
2018-12-05T16:49:43.000Z,27.4
2018-12-05T16:50:43.000Z,27.5
2018-12-05T16:52:43.000Z,27.5
2018-12-05T16:53:43.000Z,27.4
2018-12-05T16:55:43.000Z,27.5
2018-12-05T16:57:28.000Z,27.5
2018-12-05T16:58:43.000Z,27.4
2018-12-05T16:59:43.000Z,27.3
2018-12-05T17:00:43.000Z,27.4
2018-12-05T17:02:28.000Z,27.5
2018-12-05T17:03:43.000Z,27.5
2018-12-05T17:05:43.000Z,27.4
2018-12-05T17:06:43.000Z,27.4
2018-12-05T17:08:43.000Z,27.4
2018-12-05T17:10:43.000Z,27.4
2018-12-05T17:12:43.000Z,27.3
2018-12-05T17:13:43.000Z,27.3
2018-12-05T17:14:43.000Z,27.4
2018-12-05T17:16:43.000Z,27.5
2018-12-05T17:18:43.000Z,27.5
2018-12-05T17:20:43.000Z,27.4
2018-12-05T17:21:43.000Z,27.4
2018-12-05T17:22:43.000Z,27.4
2018-12-05T17:24:43.000Z,27.5
2018-12-05T17:25:43.000Z,27.5
2018-12-05T17:27:43.000Z,27.6
2018-12-05T17:28:43.000Z,27.6
2018-12-05T17:30:43.000Z,27.7
2018-12-05T17:31:43.000Z,27.7
2018-12-05T17:32:43.000Z,27.7
2018-12-05T17:34:43.000Z,27.8
2018-12-05T17:35:43.000Z,27.8
2018-12-05T17:36:43.000Z,27.8
2018-12-05T17:37:43.000Z,27.8
2018-12-05T17:39:43.000Z,27.8
2018-12-05T17:40:43.000Z,27.8
2018-12-05T17:42:43.000Z,27.8
2018-12-05T17:44:28.000Z,27.8
2018-12-05T17:45:43.000Z,27.7
2018-12-05T17:46:43.000Z,27.7
2018-12-05T17:47:43.000Z,27.7
2018-12-05T17:49:43.000Z,27.8
2018-12-05T17:51:43.000Z,27.7
2018-12-05T17:53:43.000Z,27.7
2018-12-05T17:55:43.000Z,27.5
2018-12-05T17:57:28.000Z,27.5
2018-12-05T17:58:43.000Z,27.5
2018-12-05T18:00:43.000Z,27.4
2018-12-05T18:02:43.000Z,27.4
2018-12-05T18:04:43.000Z,27.4
2018-12-05T18:06:43.000Z,27.3
2018-12-05T18:08:43.000Z,27.2
2018-12-05T18:10:43.000Z,27.3
2018-12-05T18:11:43.000Z,27.3
2018-12-05T18:13:28.000Z,27.4
2018-12-05T18:14:43.000Z,27.4
2018-12-05T18:16:43.000Z,27.4
2018-12-05T18:18:43.000Z,27.4
2018-12-05T18:19:43.000Z,27.5
2018-12-05T18:21:43.000Z,27.5
2018-12-05T18:23:43.000Z,27.5
2018-12-05T18:25:43.000Z,27.5
2018-12-05T18:27:43.000Z,27.5
2018-12-05T18:29:43.000Z,27.4
2018-12-05T18:30:43.000Z,27.4
2018-12-05T18:32:43.000Z,27.5
2018-12-05T18:33:43.000Z,27.5
2018-12-05T18:34:43.000Z,27.5
2018-12-05T18:35:43.000Z,27.6
2018-12-05T18:37:28.000Z,27.6
2018-12-05T18:38:43.000Z,27.6
2018-12-05T18:40:43.000Z,27.5
2018-12-05T18:42:43.000Z,27.4
2018-12-05T18:44:43.000Z,27.3
2018-12-05T18:46:43.000Z,27.3
2018-12-05T18:48:43.000Z,27.3
2018-12-05T18:49:43.000Z,27.4
2018-12-05T18:51:43.000Z,27.4
2018-12-05T18:53:43.000Z,27.4
2018-12-05T18:55:43.000Z,27.4
2018-12-05T18:56:43.000Z,27.4
2018-12-05T18:57:43.000Z,27.5
2018-12-05T18:59:43.000Z,27.5
2018-12-05T19:01:43.000Z,27.5
2018-12-05T19:02:43.000Z,27.5
2018-12-05T19:03:43.000Z,27.5
2018-12-05T19:05:43.000Z,27.5
2018-12-05T19:07:43.000Z,27.5
2018-12-05T19:09:28.000Z,27.5
2018-12-05T19:10:43.000Z,27.4
2018-12-05T19:11:43.000Z,27.4
2018-12-05T19:13:43.000Z,27.5
2018-12-05T19:15:43.000Z,27.5
2018-12-05T19:17:43.000Z,27.5
2018-12-05T19:18:43.000Z,27.5
2018-12-05T19:19:43.000Z,27.5
2018-12-05T19:21:43.000Z,27.6
2018-12-05T19:23:43.000Z,27.5
2018-12-05T19:24:43.000Z,27.5
2018-12-05T19:26:43.000Z,27.5
2018-12-05T19:27:43.000Z,27.6
2018-12-05T19:29:28.000Z,27.6
2018-12-05T19:30:43.000Z,27.6
2018-12-05T19:31:43.000Z,27.6
2018-12-05T19:33:43.000Z,27.6
2018-12-05T19:35:43.000Z,27.5
2018-12-05T19:36:43.000Z,27.5
2018-12-05T19:37:43.000Z,27.6
2018-12-05T19:39:43.000Z,27.5
2018-12-05T19:40:43.000Z,27.5
2018-12-05T19:41:43.000Z,27.6
2018-12-05T19:43:43.000Z,27.5
2018-12-05T19:44:43.000Z,27.5
2018-12-05T19:45:43.000Z,27.6
2018-12-05T19:47:28.000Z,27.6
2018-12-05T19:48:43.000Z,27.6
2018-12-05T19:49:43.000Z,27.6
2018-12-05T19:51:43.000Z,27.6
2018-12-05T19:53:43.000Z,27.5
2018-12-05T19:54:43.000Z,27.5
2018-12-05T19:55:43.000Z,27.6
2018-12-05T19:56:43.000Z,27.6
2018-12-05T19:58:43.000Z,27.7
2018-12-05T19:59:43.000Z,27.7
2018-12-05T20:00:43.000Z,27.7
2018-12-05T20:01:43.000Z,27.7
2018-12-05T20:03:43.000Z,27.7
2018-12-05T20:05:43.000Z,27.6
2018-12-05T20:06:43.000Z,27.6
2018-12-05T20:08:43.000Z,27.6
2018-12-05T20:10:43.000Z,27.6
2018-12-05T20:11:43.000Z,27.6
2018-12-05T20:13:43.000Z,27.6
2018-12-05T20:14:43.000Z,27.6
2018-12-05T20:16:43.000Z,27.6
2018-12-05T20:18:43.000Z,27.5
2018-12-05T20:19:43.000Z,27.5
2018-12-05T20:20:43.000Z,27.6
2018-12-05T20:22:43.000Z,27.6
2018-12-05T20:23:43.000Z,27.6
2018-12-05T20:25:43.000Z,27.6
2018-12-05T20:26:43.000Z,27.6
2018-12-05T20:27:43.000Z,27.6
2018-12-05T20:28:43.000Z,27.6
2018-12-05T20:30:43.000Z,27.6
2018-12-05T20:31:43.000Z,27.6
2018-12-05T20:33:28.000Z,27.6
2018-12-05T20:34:43.000Z,27.6
2018-12-05T20:35:43.000Z,27.6
2018-12-05T20:37:43.000Z,27.6
2018-12-05T20:38:43.000Z,27.6
2018-12-05T20:40:43.000Z,27.5
2018-12-05T20:42:43.000Z,27.4
2018-12-05T20:43:43.000Z,27.4
2018-12-05T20:44:43.000Z,27.4